Main page
METAR-TAF:

METAR-TAF

Airports :

Altenstadt Air Base

Altenstadt, Germany

latitude: 47-50N, longitude: 010-52E, elevation: 739 m

Current weather observation

The report was made 20 minutes ago, at 08:20 UTC
Wind 4 kt from the West
Temperature 0°C
Humidity 86%
Pressure 1011 hPa
Visibility 10 km or more
Scattered clouds at a height of 18000 ft
Broken clouds at a height of 24000 ft

METAR: ETHA 160820Z 26004KT 9999 SCT180 BKN240 00/M02 Q1011 BLU+BLU+

Time: 09:40 (08:40 UTC)

Forecast

The report was made 20 minutes ago, at 08:20 UTC
Forecast valid from 16 at 09 UTC to 16 at 18 UTC
Wind 7 kt from the Southwest
Visibility 10 km or more
Broken clouds at a height of 22000 ft

TAF: ETHA 160820Z 1609/1618 22007KT 9999 NSW BKN220

Weather observations and forecasts of more than 4000 airports (METAR and TAF reports).

The available stations are represented by yellow and red dots on the map.

Hover mouse over dot to see the name of the station.

Then click to see weather observations and forecasts.

To change the map : click on the green buttons with a black cross to zoom in, on the green button with a dash to zoom out, or on the green arrows for adjacent maps.


METAR-TAF: